sensor_id;sensor_type;location;lat;lon;timestamp;P1;durP1;ratioP1;P2;durP2;ratioP2
14167;SDS011;7163;50.626;12.922;2022-09-09T00:03:40;8.13;;;3.47;;
14167;SDS011;7163;50.626;12.922;2022-09-09T00:08:29;8.70;;;3.47;;
14167;SDS011;7163;50.626;12.922;2022-09-09T00:13:52;5.67;;;3.40;;
14167;SDS011;7163;50.626;12.922;2022-09-09T00:19:09;13.23;;;4.00;;
14167;SDS011;7163;50.626;12.922;2022-09-09T00:24:28;10.10;;;3.57;;
14167;SDS011;7163;50.626;12.922;2022-09-09T00:29:42;6.63;;;3.30;;
14167;SDS011;7163;50.626;12.922;2022-09-09T00:35:31;5.37;;;3.20;;
14167;SDS011;7163;50.626;12.922;2022-09-09T00:40:35;6.07;;;3.57;;
14167;SDS011;7163;50.626;12.922;2022-09-09T00:45:50;7.40;;;3.50;;
14167;SDS011;7163;50.626;12.922;2022-09-09T00:50:57;7.97;;;3.80;;
14167;SDS011;7163;50.626;12.922;2022-09-09T00:56:21;8.07;;;3.40;;
14167;SDS011;7163;50.626;12.922;2022-09-09T01:01:26;6.20;;;3.80;;
14167;SDS011;7163;50.626;12.922;2022-09-09T01:06:31;15.73;;;5.83;;
14167;SDS011;7163;50.626;12.922;2022-09-09T01:11:36;6.50;;;3.40;;
14167;SDS011;7163;50.626;12.922;2022-09-09T01:16:42;9.67;;;3.47;;
14167;SDS011;7163;50.626;12.922;2022-09-09T01:21:56;6.17;;;3.50;;
14167;SDS011;7163;50.626;12.922;2022-09-09T01:27:04;8.57;;;3.60;;
14167;SDS011;7163;50.626;12.922;2022-09-09T01:37:39;9.83;;;3.70;;
14167;SDS011;7163;50.626;12.922;2022-09-09T01:42:40;11.90;;;4.00;;
14167;SDS011;7163;50.626;12.922;2022-09-09T01:47:40;9.90;;;3.70;;
14167;SDS011;7163;50.626;12.922;2022-09-09T01:52:43;9.47;;;3.50;;
14167;SDS011;7163;50.626;12.922;2022-09-09T01:57:56;13.07;;;4.43;;
14167;SDS011;7163;50.626;12.922;2022-09-09T02:03:23;8.97;;;3.40;;
14167;SDS011;7163;50.626;12.922;2022-09-09T02:08:33;6.50;;;3.30;;
14167;SDS011;7163;50.626;12.922;2022-09-09T02:13:40;6.53;;;3.20;;
14167;SDS011;7163;50.626;12.922;2022-09-09T02:18:46;4.73;;;3.10;;
14167;SDS011;7163;50.626;12.922;2022-09-09T02:23:51;6.97;;;3.23;;
14167;SDS011;7163;50.626;12.922;2022-09-09T02:28:54;6.50;;;2.93;;
14167;SDS011;7163;50.626;12.922;2022-09-09T02:33:56;9.77;;;3.07;;
14167;SDS011;7163;50.626;12.922;2022-09-09T02:38:59;12.60;;;3.30;;
14167;SDS011;7163;50.626;12.922;2022-09-09T02:44:00;6.07;;;2.70;;
14167;SDS011;7163;50.626;12.922;2022-09-09T02:59:30;4.23;;;2.40;;
14167;SDS011;7163;50.626;12.922;2022-09-09T03:04:31;3.50;;;2.03;;
14167;SDS011;7163;50.626;12.922;2022-09-09T03:09:31;4.30;;;2.60;;
14167;SDS011;7163;50.626;12.922;2022-09-09T03:14:32;7.60;;;2.80;;
14167;SDS011;7163;50.626;12.922;2022-09-09T03:19:33;3.90;;;2.57;;
14167;SDS011;7163;50.626;12.922;2022-09-09T03:24:35;5.97;;;2.43;;
14167;SDS011;7163;50.626;12.922;2022-09-09T03:29:35;7.17;;;2.70;;
14167;SDS011;7163;50.626;12.922;2022-09-09T03:34:36;7.60;;;2.60;;
14167;SDS011;7163;50.626;12.922;2022-09-09T03:39:39;5.37;;;2.50;;
14167;SDS011;7163;50.626;12.922;2022-09-09T03:44:39;5.63;;;2.37;;
14167;SDS011;7163;50.626;12.922;2022-09-09T03:49:41;6.47;;;2.13;;
14167;SDS011;7163;50.626;12.922;2022-09-09T03:54:42;3.70;;;2.20;;
14167;SDS011;7163;50.626;12.922;2022-09-09T03:59:42;5.80;;;2.00;;
14167;SDS011;7163;50.626;12.922;2022-09-09T04:04:43;6.87;;;2.53;;
14167;SDS011;7163;50.626;12.922;2022-09-09T04:09:44;4.47;;;2.23;;
14167;SDS011;7163;50.626;12.922;2022-09-09T04:14:44;7.10;;;3.47;;
14167;SDS011;7163;50.626;12.922;2022-09-09T04:19:44;7.10;;;2.63;;
14167;SDS011;7163;50.626;12.922;2022-09-09T04:24:45;4.37;;;2.17;;
14167;SDS011;7163;50.626;12.922;2022-09-09T04:29:45;5.33;;;2.43;;
14167;SDS011;7163;50.626;12.922;2022-09-09T04:34:45;4.90;;;2.17;;
14167;SDS011;7163;50.626;12.922;2022-09-09T04:39:48;7.73;;;2.53;;
14167;SDS011;7163;50.626;12.922;2022-09-09T04:44:48;4.43;;;2.00;;
14167;SDS011;7163;50.626;12.922;2022-09-09T04:49:49;3.73;;;2.10;;
14167;SDS011;7163;50.626;12.922;2022-09-09T04:54:49;3.80;;;2.43;;
14167;SDS011;7163;50.626;12.922;2022-09-09T04:59:50;7.93;;;2.47;;
14167;SDS011;7163;50.626;12.922;2022-09-09T05:04:50;5.83;;;2.53;;
14167;SDS011;7163;50.626;12.922;2022-09-09T05:09:51;4.70;;;2.10;;
14167;SDS011;7163;50.626;12.922;2022-09-09T05:14:51;9.83;;;2.27;;
14167;SDS011;7163;50.626;12.922;2022-09-09T05:19:52;2.93;;;2.13;;
14167;SDS011;7163;50.626;12.922;2022-09-09T05:24:52;6.63;;;2.40;;
14167;SDS011;7163;50.626;12.922;2022-09-09T05:29:52;3.43;;;2.17;;
14167;SDS011;7163;50.626;12.922;2022-09-09T05:34:53;8.50;;;2.83;;
14167;SDS011;7163;50.626;12.922;2022-09-09T05:39:53;5.27;;;2.10;;
14167;SDS011;7163;50.626;12.922;2022-09-09T05:44:54;7.00;;;2.37;;
14167;SDS011;7163;50.626;12.922;2022-09-09T05:49:54;5.73;;;2.43;;
14167;SDS011;7163;50.626;12.922;2022-09-09T05:54:55;9.63;;;3.17;;
14167;SDS011;7163;50.626;12.922;2022-09-09T05:59:57;5.97;;;2.00;;
14167;SDS011;7163;50.626;12.922;2022-09-09T06:04:57;8.47;;;2.07;;
14167;SDS011;7163;50.626;12.922;2022-09-09T06:09:57;7.33;;;2.70;;
14167;SDS011;7163;50.626;12.922;2022-09-09T06:14:59;3.57;;;1.80;;
14167;SDS011;7163;50.626;12.922;2022-09-09T06:19:59;4.63;;;1.80;;
14167;SDS011;7163;50.626;12.922;2022-09-09T06:25:00;3.77;;;1.53;;
14167;SDS011;7163;50.626;12.922;2022-09-09T06:30:01;4.10;;;1.57;;
14167;SDS011;7163;50.626;12.922;2022-09-09T06:35:02;2.67;;;1.77;;
14167;SDS011;7163;50.626;12.922;2022-09-09T06:40:03;5.33;;;1.70;;
14167;SDS011;7163;50.626;12.922;2022-09-09T06:45:04;5.00;;;1.80;;
14167;SDS011;7163;50.626;12.922;2022-09-09T06:50:04;3.30;;;1.83;;
14167;SDS011;7163;50.626;12.922;2022-09-09T06:55:07;7.60;;;1.90;;
14167;SDS011;7163;50.626;12.922;2022-09-09T07:00:08;2.90;;;1.90;;
14167;SDS011;7163;50.626;12.922;2022-09-09T07:05:09;2.53;;;1.63;;
14167;SDS011;7163;50.626;12.922;2022-09-09T07:10:09;5.47;;;2.30;;
14167;SDS011;7163;50.626;12.922;2022-09-09T07:15:10;2.70;;;1.77;;
14167;SDS011;7163;50.626;12.922;2022-09-09T07:20:11;2.13;;;1.75;;
14167;SDS011;7163;50.626;12.922;2022-09-09T07:25:12;5.28;;;2.08;;
14167;SDS011;7163;50.626;12.922;2022-09-09T07:30:14;5.40;;;1.88;;
14167;SDS011;7163;50.626;12.922;2022-09-09T07:35:14;5.50;;;2.10;;
14167;SDS011;7163;50.626;12.922;2022-09-09T07:40:15;4.55;;;1.98;;
14167;SDS011;7163;50.626;12.922;2022-09-09T07:45:15;6.60;;;2.13;;
14167;SDS011;7163;50.626;12.922;2022-09-09T07:50:15;4.95;;;2.08;;
14167;SDS011;7163;50.626;12.922;2022-09-09T07:55:16;2.22;;;1.70;;
14167;SDS011;7163;50.626;12.922;2022-09-09T08:00:16;5.38;;;1.60;;
14167;SDS011;7163;50.626;12.922;2022-09-09T08:05:18;3.67;;;1.60;;
14167;SDS011;7163;50.626;12.922;2022-09-09T08:10:19;3.70;;;2.00;;
14167;SDS011;7163;50.626;12.922;2022-09-09T08:15:19;2.53;;;1.52;;
14167;SDS011;7163;50.626;12.922;2022-09-09T08:20:19;5.30;;;1.73;;
14167;SDS011;7163;50.626;12.922;2022-09-09T08:25:20;5.85;;;1.60;;
14167;SDS011;7163;50.626;12.922;2022-09-09T08:30:20;2.53;;;1.48;;
14167;SDS011;7163;50.626;12.922;2022-09-09T08:35:21;2.78;;;1.50;;
14167;SDS011;7163;50.626;12.922;2022-09-09T08:40:22;3.38;;;1.63;;
14167;SDS011;7163;50.626;12.922;2022-09-09T08:45:29;2.55;;;1.60;;
14167;SDS011;7163;50.626;12.922;2022-09-09T08:50:37;6.15;;;1.98;;
14167;SDS011;7163;50.626;12.922;2022-09-09T09:11:37;3.95;;;1.50;;
14167;SDS011;7163;50.626;12.922;2022-09-09T09:21:54;5.07;;;1.50;;
14167;SDS011;7163;50.626;12.922;2022-09-09T09:26:59;2.95;;;1.67;;
14167;SDS011;7163;50.626;12.922;2022-09-09T09:32:01;7.10;;;1.77;;
14167;SDS011;7163;50.626;12.922;2022-09-09T09:37:07;4.00;;;1.63;;
14167;SDS011;7163;50.626;12.922;2022-09-09T09:42:15;4.03;;;2.13;;
14167;SDS011;7163;50.626;12.922;2022-09-09T09:47:20;4.25;;;1.40;;
14167;SDS011;7163;50.626;12.922;2022-09-09T09:52:22;1.08;;;1.00;;
14167;SDS011;7163;50.626;12.922;2022-09-09T09:57:24;2.80;;;1.00;;
14167;SDS011;7163;50.626;12.922;2022-09-09T10:02:38;3.95;;;1.65;;
14167;SDS011;7163;50.626;12.922;2022-09-09T10:07:40;9.25;;;2.00;;
14167;SDS011;7163;50.626;12.922;2022-09-09T10:12:48;3.03;;;1.20;;
14167;SDS011;7163;50.626;12.922;2022-09-09T10:34:39;1.75;;;1.20;;
14167;SDS011;7163;50.626;12.922;2022-09-09T10:39:55;1.80;;;1.10;;
14167;SDS011;7163;50.626;12.922;2022-09-09T10:55:24;2.65;;;1.50;;
14167;SDS011;7163;50.626;12.922;2022-09-09T11:00:31;3.17;;;1.02;;
14167;SDS011;7163;50.626;12.922;2022-09-09T11:05:41;2.47;;;1.00;;
14167;SDS011;7163;50.626;12.922;2022-09-09T11:10:48;3.55;;;1.23;;
14167;SDS011;7163;50.626;12.922;2022-09-09T11:16:02;3.25;;;1.33;;
14167;SDS011;7163;50.626;12.922;2022-09-09T11:21:05;2.30;;;1.25;;
14167;SDS011;7163;50.626;12.922;2022-09-09T11:26:13;1.73;;;1.10;;
14167;SDS011;7163;50.626;12.922;2022-09-09T11:41:35;6.70;;;1.50;;
14167;SDS011;7163;50.626;12.922;2022-09-09T11:46:38;3.97;;;1.30;;
14167;SDS011;7163;50.626;12.922;2022-09-09T11:51:39;2.90;;;1.30;;
14167;SDS011;7163;50.626;12.922;2022-09-09T11:56:43;2.78;;;1.50;;
14167;SDS011;7163;50.626;12.922;2022-09-09T12:01:44;3.88;;;1.33;;
14167;SDS011;7163;50.626;12.922;2022-09-09T12:06:46;2.80;;;1.48;;
14167;SDS011;7163;50.626;12.922;2022-09-09T12:11:50;2.10;;;1.30;;
14167;SDS011;7163;50.626;12.922;2022-09-09T12:16:51;2.50;;;1.33;;
14167;SDS011;7163;50.626;12.922;2022-09-09T12:21:58;2.00;;;1.38;;
14167;SDS011;7163;50.626;12.922;2022-09-09T12:27:18;2.40;;;1.27;;
14167;SDS011;7163;50.626;12.922;2022-09-09T12:32:23;2.20;;;1.40;;
14167;SDS011;7163;50.626;12.922;2022-09-09T12:37:35;3.50;;;1.48;;
14167;SDS011;7163;50.626;12.922;2022-09-09T12:42:39;1.67;;;1.10;;
14167;SDS011;7163;50.626;12.922;2022-09-09T12:52:43;2.45;;;1.30;;
14167;SDS011;7163;50.626;12.922;2022-09-09T12:57:45;1.38;;;1.20;;
14167;SDS011;7163;50.626;12.922;2022-09-09T13:02:50;3.97;;;1.10;;
14167;SDS011;7163;50.626;12.922;2022-09-09T13:08:11;3.75;;;1.20;;
14167;SDS011;7163;50.626;12.922;2022-09-09T13:13:16;1.30;;;1.20;;
14167;SDS011;7163;50.626;12.922;2022-09-09T13:18:21;2.55;;;1.88;;
14167;SDS011;7163;50.626;12.922;2022-09-09T13:23:25;2.83;;;1.48;;
14167;SDS011;7163;50.626;12.922;2022-09-09T13:28:28;5.53;;;1.67;;
14167;SDS011;7163;50.626;12.922;2022-09-09T13:38:32;2.92;;;1.60;;
14167;SDS011;7163;50.626;12.922;2022-09-09T13:43:42;4.22;;;1.60;;
14167;SDS011;7163;50.626;12.922;2022-09-09T13:48:53;4.28;;;1.77;;
14167;SDS011;7163;50.626;12.922;2022-09-09T13:53:54;3.67;;;1.95;;
14167;SDS011;7163;50.626;12.922;2022-09-09T13:58:54;6.03;;;1.90;;
14167;SDS011;7163;50.626;12.922;2022-09-09T14:03:55;5.18;;;1.70;;
14167;SDS011;7163;50.626;12.922;2022-09-09T14:08:55;4.60;;;1.70;;
14167;SDS011;7163;50.626;12.922;2022-09-09T14:13:56;4.10;;;1.50;;
14167;SDS011;7163;50.626;12.922;2022-09-09T14:18:56;3.08;;;1.60;;
14167;SDS011;7163;50.626;12.922;2022-09-09T14:23:57;4.90;;;1.60;;
14167;SDS011;7163;50.626;12.922;2022-09-09T14:28:58;8.40;;;1.80;;
14167;SDS011;7163;50.626;12.922;2022-09-09T14:33:58;1.80;;;1.20;;
14167;SDS011;7163;50.626;12.922;2022-09-09T14:38:59;1.77;;;1.33;;
14167;SDS011;7163;50.626;12.922;2022-09-09T14:43:59;3.93;;;1.60;;
14167;SDS011;7163;50.626;12.922;2022-09-09T14:49:00;4.50;;;1.80;;
14167;SDS011;7163;50.626;12.922;2022-09-09T14:54:00;2.17;;;1.30;;
14167;SDS011;7163;50.626;12.922;2022-09-09T14:59:02;2.67;;;1.55;;
14167;SDS011;7163;50.626;12.922;2022-09-09T15:04:04;1.88;;;1.42;;
14167;SDS011;7163;50.626;12.922;2022-09-09T15:09:05;2.88;;;1.60;;
14167;SDS011;7163;50.626;12.922;2022-09-09T15:14:07;2.65;;;1.80;;
14167;SDS011;7163;50.626;12.922;2022-09-09T15:19:08;1.70;;;1.60;;
14167;SDS011;7163;50.626;12.922;2022-09-09T15:24:09;2.28;;;1.75;;
14167;SDS011;7163;50.626;12.922;2022-09-09T15:29:10;2.80;;;1.67;;
14167;SDS011;7163;50.626;12.922;2022-09-09T15:34:11;4.13;;;1.90;;
14167;SDS011;7163;50.626;12.922;2022-09-09T15:39:14;4.63;;;2.05;;
14167;SDS011;7163;50.626;12.922;2022-09-09T15:44:16;4.47;;;1.98;;
14167;SDS011;7163;50.626;12.922;2022-09-09T15:49:18;4.90;;;2.00;;
14167;SDS011;7163;50.626;12.922;2022-09-09T15:54:20;2.22;;;1.70;;
14167;SDS011;7163;50.626;12.922;2022-09-09T15:59:23;2.22;;;1.83;;
14167;SDS011;7163;50.626;12.922;2022-09-09T16:04:25;3.90;;;1.95;;
14167;SDS011;7163;50.626;12.922;2022-09-09T16:09:26;6.07;;;2.97;;
14167;SDS011;7163;50.626;12.922;2022-09-09T16:14:27;4.28;;;1.88;;
14167;SDS011;7163;50.626;12.922;2022-09-09T16:19:28;2.03;;;1.63;;
14167;SDS011;7163;50.626;12.922;2022-09-09T16:24:28;4.90;;;1.80;;
14167;SDS011;7163;50.626;12.922;2022-09-09T16:29:28;2.40;;;1.65;;
14167;SDS011;7163;50.626;12.922;2022-09-09T16:34:29;2.40;;;1.35;;
14167;SDS011;7163;50.626;12.922;2022-09-09T16:39:29;5.28;;;2.05;;
14167;SDS011;7163;50.626;12.922;2022-09-09T16:44:31;2.72;;;1.60;;
14167;SDS011;7163;50.626;12.922;2022-09-09T16:49:31;1.00;;;1.00;;
14167;SDS011;7163;50.626;12.922;2022-09-09T16:54:31;1.80;;;1.30;;
14167;SDS011;7163;50.626;12.922;2022-09-09T16:59:32;3.30;;;1.40;;
14167;SDS011;7163;50.626;12.922;2022-09-09T17:04:32;1.33;;;1.23;;
14167;SDS011;7163;50.626;12.922;2022-09-09T17:09:33;1.93;;;1.10;;
14167;SDS011;7163;50.626;12.922;2022-09-09T17:14:34;2.77;;;1.23;;
14167;SDS011;7163;50.626;12.922;2022-09-09T17:19:34;2.70;;;1.30;;
14167;SDS011;7163;50.626;12.922;2022-09-09T17:24:35;1.07;;;1.03;;
14167;SDS011;7163;50.626;12.922;2022-09-09T17:29:38;0.97;;;0.90;;
14167;SDS011;7163;50.626;12.922;2022-09-09T17:34:38;1.43;;;1.33;;
14167;SDS011;7163;50.626;12.922;2022-09-09T17:39:39;1.97;;;0.97;;
14167;SDS011;7163;50.626;12.922;2022-09-09T17:44:39;2.07;;;1.63;;
14167;SDS011;7163;50.626;12.922;2022-09-09T17:49:41;1.67;;;1.57;;
14167;SDS011;7163;50.626;12.922;2022-09-09T17:54:42;3.53;;;1.87;;
14167;SDS011;7163;50.626;12.922;2022-09-09T17:59:42;1.13;;;1.13;;
14167;SDS011;7163;50.626;12.922;2022-09-09T18:04:43;2.87;;;1.30;;
14167;SDS011;7163;50.626;12.922;2022-09-09T18:09:43;2.10;;;1.20;;
14167;SDS011;7163;50.626;12.922;2022-09-09T18:14:43;4.17;;;1.40;;
14167;SDS011;7163;50.626;12.922;2022-09-09T18:19:44;1.40;;;1.30;;
14167;SDS011;7163;50.626;12.922;2022-09-09T18:24:44;1.40;;;1.30;;
14167;SDS011;7163;50.626;12.922;2022-09-09T18:29:47;4.20;;;1.40;;
14167;SDS011;7163;50.626;12.922;2022-09-09T18:34:47;3.23;;;1.50;;
14167;SDS011;7163;50.626;12.922;2022-09-09T18:39:49;1.40;;;1.30;;
14167;SDS011;7163;50.626;12.922;2022-09-09T18:44:50;2.77;;;1.40;;
14167;SDS011;7163;50.626;12.922;2022-09-09T18:49:50;3.27;;;1.40;;
14167;SDS011;7163;50.626;12.922;2022-09-09T18:54:51;1.60;;;1.50;;
14167;SDS011;7163;50.626;12.922;2022-09-09T18:59:52;1.87;;;1.20;;
14167;SDS011;7163;50.626;12.922;2022-09-09T19:04:53;1.40;;;1.30;;
14167;SDS011;7163;50.626;12.922;2022-09-09T19:09:54;2.27;;;1.50;;
14167;SDS011;7163;50.626;12.922;2022-09-09T19:14:55;1.57;;;1.47;;
14167;SDS011;7163;50.626;12.922;2022-09-09T19:19:55;1.67;;;1.50;;
14167;SDS011;7163;50.626;12.922;2022-09-09T19:24:56;3.60;;;1.80;;
14167;SDS011;7163;50.626;12.922;2022-09-09T19:29:58;2.53;;;1.50;;
14167;SDS011;7163;50.626;12.922;2022-09-09T19:34:58;1.90;;;1.57;;
14167;SDS011;7163;50.626;12.922;2022-09-09T19:39:58;1.57;;;1.40;;
14167;SDS011;7163;50.626;12.922;2022-09-09T19:44:59;2.97;;;1.40;;
14167;SDS011;7163;50.626;12.922;2022-09-09T19:49:59;1.60;;;1.50;;
14167;SDS011;7163;50.626;12.922;2022-09-09T19:54:59;1.60;;;1.50;;
14167;SDS011;7163;50.626;12.922;2022-09-09T20:00:00;3.00;;;1.83;;
14167;SDS011;7163;50.626;12.922;2022-09-09T20:05:02;1.50;;;1.40;;
14167;SDS011;7163;50.626;12.922;2022-09-09T20:10:03;1.77;;;1.60;;
14167;SDS011;7163;50.626;12.922;2022-09-09T20:15:03;4.93;;;1.40;;
14167;SDS011;7163;50.626;12.922;2022-09-09T20:20:04;1.57;;;1.23;;
14167;SDS011;7163;50.626;12.922;2022-09-09T20:25:04;3.57;;;1.70;;
14167;SDS011;7163;50.626;12.922;2022-09-09T20:30:06;3.00;;;1.90;;
14167;SDS011;7163;50.626;12.922;2022-09-09T20:35:07;4.70;;;1.80;;
14167;SDS011;7163;50.626;12.922;2022-09-09T20:40:08;2.00;;;1.80;;
14167;SDS011;7163;50.626;12.922;2022-09-09T20:45:09;1.63;;;1.50;;
14167;SDS011;7163;50.626;12.922;2022-09-09T20:50:15;2.63;;;1.80;;
14167;SDS011;7163;50.626;12.922;2022-09-09T20:55:15;1.90;;;1.73;;
14167;SDS011;7163;50.626;12.922;2022-09-09T21:00:15;3.13;;;1.50;;
14167;SDS011;7163;50.626;12.922;2022-09-09T21:05:16;3.23;;;1.50;;
14167;SDS011;7163;50.626;12.922;2022-09-09T21:10:18;2.93;;;1.77;;
14167;SDS011;7163;50.626;12.922;2022-09-09T21:15:19;2.80;;;1.90;;
14167;SDS011;7163;50.626;12.922;2022-09-09T21:20:19;2.30;;;1.80;;
14167;SDS011;7163;50.626;12.922;2022-09-09T21:25:20;5.10;;;2.00;;
14167;SDS011;7163;50.626;12.922;2022-09-09T21:30:21;3.13;;;1.70;;
14167;SDS011;7163;50.626;12.922;2022-09-09T21:35:21;2.90;;;2.07;;
14167;SDS011;7163;50.626;12.922;2022-09-09T21:40:22;5.43;;;1.73;;
14167;SDS011;7163;50.626;12.922;2022-09-09T21:45:22;2.07;;;1.80;;
14167;SDS011;7163;50.626;12.922;2022-09-09T21:50:24;3.80;;;1.83;;
14167;SDS011;7163;50.626;12.922;2022-09-09T21:55:25;5.27;;;1.90;;
14167;SDS011;7163;50.626;12.922;2022-09-09T22:00:25;4.77;;;1.60;;
14167;SDS011;7163;50.626;12.922;2022-09-09T22:05:26;5.60;;;1.97;;
14167;SDS011;7163;50.626;12.922;2022-09-09T22:10:26;3.07;;;2.00;;
14167;SDS011;7163;50.626;12.922;2022-09-09T22:15:26;2.63;;;2.40;;
14167;SDS011;7163;50.626;12.922;2022-09-09T22:20:32;5.90;;;1.97;;
14167;SDS011;7163;50.626;12.922;2022-09-09T22:25:34;4.90;;;2.00;;
14167;SDS011;7163;50.626;12.922;2022-09-09T22:30:35;3.50;;;2.30;;
14167;SDS011;7163;50.626;12.922;2022-09-09T22:35:38;4.23;;;1.80;;
14167;SDS011;7163;50.626;12.922;2022-09-09T22:40:41;4.50;;;2.00;;
14167;SDS011;7163;50.626;12.922;2022-09-09T22:45:42;3.93;;;2.00;;
14167;SDS011;7163;50.626;12.922;2022-09-09T22:50:42;4.03;;;2.00;;
14167;SDS011;7163;50.626;12.922;2022-09-09T22:55:54;7.10;;;2.10;;
14167;SDS011;7163;50.626;12.922;2022-09-09T23:00:57;5.60;;;2.27;;
14167;SDS011;7163;50.626;12.922;2022-09-09T23:05:58;3.03;;;1.90;;
14167;SDS011;7163;50.626;12.922;2022-09-09T23:11:02;6.53;;;2.20;;
14167;SDS011;7163;50.626;12.922;2022-09-09T23:16:11;3.53;;;2.10;;
14167;SDS011;7163;50.626;12.922;2022-09-09T23:21:13;3.80;;;2.47;;
14167;SDS011;7163;50.626;12.922;2022-09-09T23:26:14;4.97;;;2.20;;
14167;SDS011;7163;50.626;12.922;2022-09-09T23:31:20;6.03;;;2.30;;
14167;SDS011;7163;50.626;12.922;2022-09-09T23:36:22;4.87;;;2.30;;
14167;SDS011;7163;50.626;12.922;2022-09-09T23:41:24;5.47;;;2.10;;
14167;SDS011;7163;50.626;12.922;2022-09-09T23:46:25;2.57;;;2.23;;
14167;SDS011;7163;50.626;12.922;2022-09-09T23:51:28;6.03;;;3.13;;
14167;SDS011;7163;50.626;12.922;2022-09-09T23:56:33;3.90;;;2.30;;
